createdAt,value
2022-11-28T00:01:29.051Z,10.50
2022-11-28T00:03:56.721Z,10.50
2022-11-28T00:06:25.001Z,10.50
2022-11-28T00:08:52.743Z,10.40
2022-11-28T00:11:20.216Z,10.40
2022-11-28T00:13:47.633Z,10.40
2022-11-28T00:16:23.781Z,10.30
2022-11-28T00:18:52.541Z,10.30
2022-11-28T00:21:20.420Z,10.30
2022-11-28T00:23:48.895Z,10.30
2022-11-28T00:26:26.403Z,10.30
2022-11-28T00:28:55.135Z,10.20
2022-11-28T00:31:26.463Z,10.20
2022-11-28T00:33:54.343Z,10.20
2022-11-28T00:36:23.134Z,10.10
2022-11-28T00:38:51.508Z,10.10
2022-11-28T00:41:28.739Z,10.10
2022-11-28T00:43:57.193Z,10.10
2022-11-28T00:46:24.844Z,10.10
2022-11-28T00:48:52.935Z,10.00
2022-11-28T00:51:22.862Z,10.00
2022-11-28T00:53:51.992Z,10.00
2022-11-28T00:56:22.448Z,9.90
2022-11-28T00:58:50.058Z,9.90
2022-11-28T01:01:24.455Z,9.90
2022-11-28T01:03:54.392Z,9.90
2022-11-28T01:06:28.450Z,9.90
2022-11-28T01:08:58.157Z,9.80
2022-11-28T01:11:28.200Z,9.80
2022-11-28T01:13:57.712Z,9.80
2022-11-28T01:16:25.528Z,9.80
2022-11-28T01:18:53.188Z,9.70
2022-11-28T01:21:21.239Z,9.80
2022-11-28T01:23:48.633Z,9.70
2022-11-28T01:26:22.065Z,9.70
2022-11-28T01:28:51.151Z,9.60
2022-11-28T01:31:21.728Z,9.70
2022-11-28T01:33:49.597Z,9.60
2022-11-28T01:36:18.046Z,9.60
2022-11-28T01:38:46.467Z,9.60
2022-11-28T01:41:15.453Z,9.60
2022-11-28T01:44:04.006Z,10.30
2022-11-28T01:46:31.861Z,9.50
2022-11-28T01:49:05.726Z,9.50
2022-11-28T01:51:34.180Z,9.20
2022-11-28T01:54:02.903Z,9.50
2022-11-28T01:56:38.537Z,8.80
2022-11-28T01:59:09.389Z,9.60
2022-11-28T02:01:37.244Z,9.50
2022-11-28T02:04:05.183Z,9.40
2022-11-28T02:06:33.304Z,9.40
2022-11-28T02:09:00.730Z,9.70
2022-11-28T02:12:22.664Z,9.50
2022-11-28T02:15:11.124Z,9.40
2022-11-28T02:17:40.993Z,9.40
2022-11-28T02:20:26.580Z,9.40
2022-11-28T02:23:17.007Z,9.40
2022-11-28T02:26:01.524Z,9.30
2022-11-28T02:29:01.011Z,9.30
2022-11-28T02:31:37.436Z,9.30
2022-11-28T02:34:08.664Z,9.30
2022-11-28T02:37:01.171Z,9.30
2022-11-28T02:39:53.532Z,9.30
2022-11-28T02:42:29.795Z,9.20
2022-11-28T02:45:08.177Z,9.30
2022-11-28T02:47:46.328Z,9.30
2022-11-28T02:50:24.144Z,9.20
2022-11-28T02:52:57.375Z,9.20
2022-11-28T02:55:25.924Z,10.10
2022-11-28T02:57:54.908Z,9.20
2022-11-28T03:00:38.096Z,9.20
2022-11-28T03:03:24.248Z,9.20
2022-11-28T03:06:00.285Z,9.20
2022-11-28T03:09:02.978Z,9.20
2022-11-28T03:11:56.516Z,9.20
2022-11-28T03:14:57.681Z,9.20
2022-11-28T03:18:04.853Z,9.10
2022-11-28T03:20:46.872Z,9.10
2022-11-28T03:23:20.457Z,9.10
2022-11-28T03:25:47.685Z,9.10
2022-11-28T03:28:21.523Z,9.10
2022-11-28T03:31:00.929Z,9.00
2022-11-28T03:33:36.387Z,9.00
2022-11-28T03:36:15.870Z,9.00
2022-11-28T03:38:48.712Z,8.90
2022-11-28T03:41:35.236Z,8.90
2022-11-28T03:44:05.447Z,8.90
2022-11-28T03:46:42.977Z,8.90
2022-11-28T03:49:12.246Z,8.80
2022-11-28T03:51:46.683Z,8.80
2022-11-28T03:54:40.005Z,8.80
2022-11-28T03:57:20.304Z,8.80
2022-11-28T03:59:51.667Z,8.80
2022-11-28T04:02:31.170Z,8.80
2022-11-28T04:05:01.550Z,8.70
2022-11-28T04:07:38.907Z,8.70
2022-11-28T04:10:32.367Z,8.70
2022-11-28T04:13:33.692Z,8.70
2022-11-28T04:16:22.803Z,8.70
2022-11-28T04:19:03.473Z,8.70
2022-11-28T04:21:52.624Z,8.60
2022-11-28T04:24:25.625Z,8.80
2022-11-28T04:27:01.742Z,8.60
2022-11-28T04:29:34.673Z,8.60
2022-11-28T04:32:03.690Z,8.60
2022-11-28T04:34:34.995Z,8.60
2022-11-28T04:37:09.487Z,8.60
2022-11-28T04:39:38.978Z,8.60
2022-11-28T04:42:17.224Z,8.50
2022-11-28T04:44:50.578Z,8.60
2022-11-28T04:47:18.677Z,8.50
2022-11-28T04:49:46.512Z,8.50
2022-11-28T04:52:19.776Z,8.60
2022-11-28T04:55:15.965Z,8.60
2022-11-28T04:57:56.896Z,8.60
2022-11-28T05:00:26.544Z,9.90
2022-11-28T05:02:56.160Z,8.50
2022-11-28T05:05:26.083Z,8.90
2022-11-28T05:07:53.797Z,8.60
2022-11-28T05:10:21.543Z,8.60
2022-11-28T05:12:48.903Z,8.60
2022-11-28T05:15:19.180Z,8.60
2022-11-28T05:17:47.297Z,8.60
2022-11-28T05:20:15.046Z,8.60
2022-11-28T05:22:42.491Z,8.60
2022-11-28T05:25:10.119Z,8.60
2022-11-28T05:27:37.714Z,8.60
2022-11-28T05:30:06.879Z,9.10
2022-11-28T05:32:34.252Z,8.50
2022-11-28T05:35:01.890Z,8.50
2022-11-28T05:37:29.360Z,8.40
2022-11-28T05:39:56.947Z,8.40
2022-11-28T05:42:26.057Z,8.40
2022-11-28T05:44:53.387Z,8.40
2022-11-28T05:47:20.776Z,8.40
2022-11-28T05:49:48.245Z,8.40
2022-11-28T05:52:15.594Z,8.30
2022-11-28T05:54:42.994Z,8.40
2022-11-28T05:57:10.328Z,9.40
2022-11-28T05:59:37.948Z,8.40
2022-11-28T06:02:05.349Z,8.40
2022-11-28T06:04:32.737Z,8.40
2022-11-28T06:07:00.115Z,8.40
2022-11-28T06:09:27.445Z,8.30
2022-11-28T06:11:54.765Z,8.30
2022-11-28T06:14:23.488Z,8.30
2022-11-28T06:16:50.918Z,8.20
2022-11-28T06:19:18.372Z,8.20
2022-11-28T06:21:46.013Z,8.00
2022-11-28T06:24:13.306Z,8.10
2022-11-28T06:26:40.580Z,8.10
2022-11-28T06:29:08.056Z,8.10
2022-11-28T06:31:35.608Z,8.00
2022-11-28T06:34:02.878Z,8.10
2022-11-28T06:36:31.031Z,8.00
2022-11-28T06:38:58.396Z,8.00
2022-11-28T06:41:25.814Z,8.00
2022-11-28T06:43:57.161Z,8.00
2022-11-28T06:46:24.590Z,8.00
2022-11-28T06:48:53.129Z,7.90
2022-11-28T06:51:21.661Z,7.90
2022-11-28T06:53:50.285Z,7.80
2022-11-28T06:56:19.765Z,7.90
2022-11-28T06:58:48.824Z,7.80
2022-11-28T07:01:21.898Z,7.80
2022-11-28T07:03:49.963Z,7.90
2022-11-28T07:06:19.848Z,7.80
2022-11-28T07:08:47.588Z,7.90
2022-11-28T07:11:21.171Z,7.90
2022-11-28T07:13:49.802Z,7.90
2022-11-28T07:16:21.606Z,7.90
2022-11-28T07:18:49.853Z,7.80
2022-11-28T07:21:17.723Z,8.20
2022-11-28T07:23:45.339Z,7.90
2022-11-28T07:26:14.836Z,7.80
2022-11-28T07:28:42.844Z,7.10
2022-11-28T07:31:17.509Z,7.80
2022-11-28T07:33:46.937Z,7.80
2022-11-28T07:36:20.019Z,7.90
2022-11-28T07:38:49.121Z,7.60
2022-11-28T07:41:16.955Z,7.80
2022-11-28T07:43:46.275Z,7.80
2022-11-28T07:46:18.945Z,7.80
2022-11-28T07:48:48.818Z,7.80
2022-11-28T07:51:25.174Z,7.90
2022-11-28T07:53:53.353Z,7.80
2022-11-28T07:56:24.971Z,7.80
2022-11-28T07:58:53.003Z,7.80
2022-11-28T08:01:25.674Z,7.80
2022-11-28T08:03:53.442Z,7.80
2022-11-28T08:06:24.104Z,7.80
2022-11-28T08:08:53.121Z,7.90
2022-11-28T08:11:22.345Z,7.90
2022-11-28T08:13:52.821Z,7.90
2022-11-28T08:16:24.178Z,7.90
2022-11-28T08:18:52.669Z,8.00
2022-11-28T08:21:26.280Z,8.00
2022-11-28T08:23:55.129Z,8.00
2022-11-28T08:26:30.198Z,8.00
2022-11-28T08:28:59.120Z,8.00
2022-11-28T08:31:36.105Z,8.00
2022-11-28T08:34:06.284Z,8.00
2022-11-28T08:36:34.319Z,8.00
2022-11-28T08:39:22.344Z,8.00
2022-11-28T08:41:53.093Z,8.00
2022-11-28T08:44:20.993Z,8.10
2022-11-28T08:46:48.334Z,8.10
2022-11-28T08:49:16.103Z,8.10
2022-11-28T08:51:43.648Z,8.30
2022-11-28T08:54:11.100Z,8.70
2022-11-28T08:56:38.641Z,8.10
2022-11-28T08:59:07.248Z,8.20
2022-11-28T09:01:34.942Z,8.20
2022-11-28T09:04:02.487Z,8.20
2022-11-28T09:06:30.268Z,8.20
2022-11-28T09:08:58.590Z,8.30
2022-11-28T09:11:26.175Z,8.20
2022-11-28T09:13:53.578Z,8.20
2022-11-28T09:16:20.964Z,8.30
2022-11-28T09:18:48.824Z,8.30
2022-11-28T09:21:16.410Z,8.30
2022-11-28T09:23:45.251Z,8.30
2022-11-28T09:26:20.210Z,8.40
2022-11-28T09:28:50.902Z,8.40
2022-11-28T09:31:19.530Z,8.40
2022-11-28T09:33:49.331Z,8.40
2022-11-28T09:36:19.170Z,8.50
2022-11-28T09:38:47.361Z,8.50
2022-11-28T09:41:39.280Z,8.50
2022-11-28T09:44:25.355Z,8.60
2022-11-28T09:46:57.873Z,8.70
2022-11-28T09:49:45.133Z,8.70
2022-11-28T09:53:03.919Z,8.70
2022-11-28T09:55:50.285Z,8.70
2022-11-28T09:58:51.547Z,8.70
2022-11-28T10:01:58.743Z,8.80
2022-11-28T10:04:42.875Z,8.80
2022-11-28T10:07:42.497Z,8.80
2022-11-28T10:10:25.997Z,8.90
2022-11-28T10:13:11.669Z,8.90
2022-11-28T10:15:48.369Z,8.60
2022-11-28T10:18:48.947Z,9.00
2022-11-28T10:21:25.444Z,9.00
2022-11-28T10:23:54.877Z,9.00
2022-11-28T10:26:36.172Z,9.10
2022-11-28T10:29:19.229Z,9.10
2022-11-28T10:31:48.500Z,7.80
2022-11-28T10:34:27.084Z,9.20
2022-11-28T10:36:57.834Z,9.30
2022-11-28T10:39:26.482Z,9.30
2022-11-28T10:42:14.096Z,9.40
2022-11-28T10:44:53.640Z,9.50
2022-11-28T10:47:48.681Z,9.50
2022-11-28T10:50:48.268Z,9.50
2022-11-28T10:53:42.699Z,9.50
2022-11-28T10:56:40.367Z,9.50
2022-11-28T10:59:16.015Z,9.60
2022-11-28T11:01:48.700Z,9.60
2022-11-28T11:04:26.678Z,9.60
2022-11-28T11:07:19.101Z,9.60
2022-11-28T11:09:48.477Z,9.60
2022-11-28T11:12:29.018Z,9.60
2022-11-28T11:14:57.051Z,9.60
2022-11-28T11:17:31.346Z,9.10
2022-11-28T11:20:01.733Z,10.00
2022-11-28T11:22:31.991Z,9.70
2022-11-28T11:25:18.188Z,9.70
2022-11-28T11:27:57.387Z,9.80
2022-11-28T11:30:39.375Z,9.70
2022-11-28T11:33:15.485Z,9.80
2022-11-28T11:35:49.172Z,9.80
2022-11-28T11:38:16.619Z,9.80
2022-11-28T11:40:44.278Z,9.90
2022-11-28T11:43:46.896Z,9.80
2022-11-28T11:46:16.426Z,9.90
2022-11-28T11:48:46.597Z,9.80
2022-11-28T11:51:32.630Z,9.90
2022-11-28T11:54:25.687Z,9.90
2022-11-28T11:57:05.854Z,9.80
2022-11-28T11:59:46.002Z,10.20
2022-11-28T12:02:31.265Z,9.90
2022-11-28T12:05:28.523Z,9.90
2022-11-28T12:08:03.748Z,9.90
2022-11-28T12:10:45.273Z,9.90
2022-11-28T12:13:23.149Z,9.90
2022-11-28T12:15:56.557Z,9.90
2022-11-28T12:18:41.737Z,9.90
2022-11-28T12:21:30.861Z,9.90
2022-11-28T12:24:07.005Z,10.00
2022-11-28T12:26:49.723Z,10.00
2022-11-28T12:29:43.805Z,10.00
2022-11-28T12:32:29.220Z,10.00
2022-11-28T12:35:15.667Z,10.10
2022-11-28T12:38:11.402Z,10.10
2022-11-28T12:40:52.793Z,10.10
2022-11-28T12:43:39.063Z,10.20
2022-11-28T12:46:13.110Z,10.10
2022-11-28T12:49:27.823Z,10.20
2022-11-28T12:52:23.070Z,10.60
2022-11-28T12:55:28.409Z,10.30
2022-11-28T12:58:12.033Z,10.30
2022-11-28T13:01:00.309Z,10.40
2022-11-28T13:04:04.834Z,10.50
2022-11-28T13:06:42.060Z,10.60
2022-11-28T13:09:30.752Z,10.70
2022-11-28T13:12:17.213Z,10.70
2022-11-28T13:15:34.650Z,10.80
2022-11-28T13:18:22.053Z,10.80
2022-11-28T13:21:00.516Z,10.80
2022-11-28T13:23:44.685Z,10.90
2022-11-28T13:26:24.224Z,10.90
2022-11-28T13:28:59.335Z,10.80
2022-11-28T13:31:36.580Z,10.80
2022-11-28T13:34:04.914Z,10.80
2022-11-28T13:39:32.010Z,10.80
2022-11-28T13:45:13.621Z,10.70
2022-11-28T13:47:41.058Z,10.70
2022-11-28T13:50:36.708Z,10.70
2022-11-28T13:53:22.304Z,10.70
2022-11-28T13:56:02.949Z,10.70
2022-11-28T13:58:54.110Z,10.70
2022-11-28T14:01:26.184Z,10.60
2022-11-28T14:04:02.383Z,10.90
2022-11-28T14:06:30.859Z,10.60
2022-11-28T14:09:16.141Z,10.50
2022-11-28T14:12:13.699Z,10.50
2022-11-28T14:15:02.246Z,10.50
2022-11-28T14:17:51.023Z,10.40
2022-11-28T14:20:30.419Z,10.50
2022-11-28T14:23:00.516Z,11.00
2022-11-28T14:25:49.816Z,10.50
2022-11-28T14:28:33.415Z,9.90
2022-11-28T14:31:25.745Z,10.40
2022-11-28T14:34:01.050Z,10.40
2022-11-28T14:36:34.612Z,10.40
2022-11-28T14:39:16.812Z,10.40
2022-11-28T14:42:02.629Z,10.40
2022-11-28T14:44:56.592Z,10.40
2022-11-28T14:47:40.003Z,10.40
2022-11-28T14:50:07.226Z,10.30
2022-11-28T14:52:40.231Z,10.50
2022-11-28T14:55:11.128Z,10.50
2022-11-28T14:57:58.432Z,10.50
2022-11-28T15:00:40.967Z,10.60
2022-11-28T15:03:14.063Z,11.20
2022-11-28T15:05:53.988Z,10.60
2022-11-28T15:08:32.579Z,10.60
2022-11-28T15:11:28.841Z,10.70
2022-11-28T15:14:10.259Z,10.70
2022-11-28T15:16:48.292Z,10.70
2022-11-28T15:19:27.509Z,10.80
2022-11-28T15:21:55.551Z,10.80
2022-11-28T15:24:28.803Z,10.80
2022-11-28T15:27:08.186Z,10.70
2022-11-28T15:29:36.657Z,10.70
2022-11-28T15:32:05.673Z,10.70
2022-11-28T15:34:38.042Z,10.70
2022-11-28T15:37:07.891Z,10.60
2022-11-28T15:39:40.796Z,10.60
2022-11-28T15:42:33.457Z,10.50
2022-11-28T15:45:06.817Z,10.50
2022-11-28T15:47:35.003Z,10.50
2022-11-28T15:50:11.780Z,10.50
2022-11-28T15:52:40.215Z,10.50
2022-11-28T15:55:17.394Z,10.40
2022-11-28T15:57:44.844Z,9.80
2022-11-28T16:00:16.928Z,10.60
2022-11-28T16:02:45.705Z,10.40
2022-11-28T16:05:21.266Z,10.40
2022-11-28T16:07:52.109Z,10.30
2022-11-28T16:10:34.881Z,10.30
2022-11-28T16:13:09.075Z,10.20
2022-11-28T16:15:37.176Z,10.20
2022-11-28T16:18:04.824Z,10.20
2022-11-28T16:20:37.391Z,10.10
2022-11-28T16:23:10.908Z,10.10
2022-11-28T16:25:39.122Z,10.00
2022-11-28T16:28:52.648Z,10.00
2022-11-28T16:31:23.889Z,9.90
2022-11-28T16:33:52.167Z,9.90
2022-11-28T16:36:25.842Z,9.80
2022-11-28T16:39:04.848Z,9.70
2022-11-28T16:41:32.945Z,9.70
2022-11-28T16:44:07.615Z,9.70
2022-11-28T16:46:58.536Z,9.60
2022-11-28T16:49:44.031Z,9.50
2022-11-28T16:52:21.839Z,10.10
2022-11-28T16:54:50.386Z,9.40
2022-11-28T16:57:21.055Z,9.40
2022-11-28T16:59:54.275Z,9.30
2022-11-28T17:02:23.939Z,9.30
2022-11-28T17:04:53.410Z,9.30
2022-11-28T17:07:24.318Z,9.20
2022-11-28T17:09:51.683Z,9.20
2022-11-28T17:12:32.452Z,9.10
2022-11-28T17:15:00.020Z,9.10
2022-11-28T17:17:30.024Z,9.10
2022-11-28T17:19:57.385Z,9.10
2022-11-28T17:22:40.393Z,9.10
2022-11-28T17:25:17.940Z,9.10
2022-11-28T17:27:46.200Z,8.30
2022-11-28T17:30:15.769Z,9.10
2022-11-28T17:32:43.703Z,9.20
2022-11-28T17:35:20.139Z,9.10
2022-11-28T17:37:47.573Z,9.20
2022-11-28T17:40:33.063Z,9.20
2022-11-28T17:43:01.494Z,9.20
2022-11-28T17:45:32.450Z,9.20
2022-11-28T17:47:59.974Z,9.20
2022-11-28T17:50:27.275Z,9.20
2022-11-28T17:52:54.595Z,9.30
2022-11-28T17:55:21.898Z,9.30
2022-11-28T17:57:49.332Z,9.40
2022-11-28T18:00:17.071Z,9.30
2022-11-28T18:02:44.468Z,9.40
2022-11-28T18:05:11.821Z,9.40
2022-11-28T18:07:39.570Z,9.40
2022-11-28T18:10:07.822Z,9.40
2022-11-28T18:12:35.112Z,9.40
2022-11-28T18:15:02.548Z,9.40
2022-11-28T18:17:29.812Z,9.40
2022-11-28T18:19:58.069Z,9.40
2022-11-28T18:22:25.384Z,9.50
2022-11-28T18:24:52.628Z,9.50
2022-11-28T18:27:19.934Z,9.50
2022-11-28T18:29:47.232Z,9.60
2022-11-28T18:32:14.718Z,9.60
2022-11-28T18:34:41.981Z,9.60
2022-11-28T18:37:09.207Z,9.70
2022-11-28T18:39:36.633Z,9.80
2022-11-28T18:42:04.916Z,9.80
2022-11-28T18:44:32.134Z,9.80
2022-11-28T18:46:59.603Z,9.70
2022-11-28T18:49:27.210Z,9.70
2022-11-28T18:51:56.580Z,9.60
2022-11-28T18:54:23.890Z,9.60
2022-11-28T18:56:51.400Z,9.60
2022-11-28T18:59:18.771Z,9.50
2022-11-28T19:01:46.109Z,9.60
2022-11-28T19:04:15.592Z,9.50
2022-11-28T19:06:44.126Z,9.50
2022-11-28T19:09:14.440Z,9.50
2022-11-28T19:11:42.456Z,9.40
2022-11-28T19:14:17.533Z,9.40
2022-11-28T19:16:45.713Z,9.00
2022-11-28T19:19:13.058Z,9.30
2022-11-28T19:21:40.367Z,9.30
2022-11-28T19:24:08.566Z,9.30
2022-11-28T19:26:36.064Z,9.30
2022-11-28T19:29:04.142Z,9.30
2022-11-28T19:31:34.068Z,10.30
2022-11-28T19:34:03.768Z,9.20
2022-11-28T19:36:40.996Z,9.20
2022-11-28T19:39:14.576Z,9.20
2022-11-28T19:41:41.884Z,9.10
2022-11-28T19:44:13.015Z,9.10
2022-11-28T19:46:40.416Z,9.10
2022-11-28T19:49:10.796Z,9.10
2022-11-28T19:51:38.076Z,9.70
2022-11-28T19:54:05.482Z,9.20
2022-11-28T19:56:32.817Z,9.20
2022-11-28T19:59:00.356Z,9.10
2022-11-28T20:01:28.169Z,9.00
2022-11-28T20:03:55.721Z,9.00
2022-11-28T20:06:28.584Z,9.00
2022-11-28T20:09:03.613Z,9.00
2022-11-28T20:11:34.589Z,8.90
2022-11-28T20:14:07.257Z,8.90
2022-11-28T20:16:36.726Z,8.90
2022-11-28T20:19:05.831Z,8.90
2022-11-28T20:21:33.226Z,8.90
2022-11-28T20:24:04.725Z,9.00
2022-11-28T20:26:35.547Z,9.00
2022-11-28T20:29:02.892Z,9.00
2022-11-28T20:31:33.921Z,9.00
2022-11-28T20:34:02.214Z,9.00
2022-11-28T20:36:31.117Z,9.10
2022-11-28T20:38:59.636Z,9.00
2022-11-28T20:41:28.054Z,8.90
2022-11-28T20:43:55.645Z,8.90
2022-11-28T20:46:27.296Z,8.80
2022-11-28T20:48:56.694Z,8.80
2022-11-28T20:51:26.224Z,8.80
2022-11-28T20:53:54.985Z,8.80
2022-11-28T20:56:29.235Z,8.80
2022-11-28T20:58:58.712Z,8.80
2022-11-28T21:01:30.631Z,8.90
2022-11-28T21:03:58.514Z,8.90
2022-11-28T21:06:25.756Z,8.90
2022-11-28T21:08:52.993Z,8.80
2022-11-28T21:11:43.777Z,8.30
2022-11-28T21:14:09.672Z,8.70
2022-11-28T21:16:37.219Z,8.70
2022-11-28T21:19:07.686Z,8.70
2022-11-28T21:21:36.948Z,8.60
2022-11-28T21:24:11.449Z,8.60
2022-11-28T21:26:43.205Z,8.60
2022-11-28T21:29:13.189Z,8.50
2022-11-28T21:31:43.368Z,8.60
2022-11-28T21:34:15.593Z,8.50
2022-11-28T21:36:43.275Z,8.50
2022-11-28T21:39:17.026Z,8.50
2022-11-28T21:41:44.399Z,8.50
2022-11-28T21:44:11.799Z,8.50
2022-11-28T21:46:39.167Z,8.50
2022-11-28T21:49:06.481Z,8.50
2022-11-28T21:51:33.792Z,8.50
2022-11-28T21:54:02.259Z,8.40
2022-11-28T21:56:29.708Z,8.40
2022-11-28T21:58:56.976Z,8.40
2022-11-28T22:01:24.282Z,8.40
2022-11-28T22:03:51.650Z,8.40
2022-11-28T22:06:22.558Z,8.40
2022-11-28T22:08:51.459Z,8.20
2022-11-28T22:11:20.490Z,8.50
2022-11-28T22:13:48.425Z,8.60
2022-11-28T22:16:17.544Z,8.60
2022-11-28T22:18:45.782Z,8.60
2022-11-28T22:21:49.873Z,8.80
2022-11-28T22:24:00.582Z,8.80
2022-11-28T22:26:27.866Z,8.80
2022-11-28T22:28:55.160Z,8.80
2022-11-28T22:31:22.719Z,8.90
2022-11-28T22:33:50.538Z,8.90
2022-11-28T22:36:19.964Z,8.90
2022-11-28T22:38:48.680Z,8.90
2022-11-28T22:41:24.821Z,8.90
2022-11-28T22:43:57.378Z,9.00
2022-11-28T22:46:24.819Z,9.00
2022-11-28T22:48:52.218Z,9.00
2022-11-28T22:51:23.512Z,9.00
2022-11-28T22:53:58.373Z,9.00
2022-11-28T22:56:26.239Z,8.90
2022-11-28T22:58:53.573Z,9.00
2022-11-28T23:01:29.721Z,9.00
2022-11-28T23:03:57.300Z,9.00
2022-11-28T23:06:27.484Z,9.00
2022-11-28T23:08:56.052Z,9.00
2022-11-28T23:11:27.465Z,9.00
2022-11-28T23:13:55.244Z,9.00
2022-11-28T23:16:33.979Z,9.00
2022-11-28T23:19:04.740Z,9.00
2022-11-28T23:21:34.896Z,8.90
2022-11-28T23:24:02.200Z,9.00
2022-11-28T23:26:30.965Z,9.00
2022-11-28T23:29:03.588Z,8.90
2022-11-28T23:31:33.030Z,8.90
2022-11-28T23:34:01.000Z,8.90
2022-11-28T23:36:29.886Z,9.60
2022-11-28T23:39:00.297Z,8.90
2022-11-28T23:41:28.651Z,8.90
2022-11-28T23:43:56.387Z,8.90
2022-11-28T23:46:24.714Z,8.90
2022-11-28T23:48:52.220Z,8.90
2022-11-28T23:51:21.536Z,8.80
2022-11-28T23:53:50.103Z,8.80
2022-11-28T23:56:20.512Z,8.80
2022-11-28T23:58:48.561Z,8.80
